sensor_id;sensor_type;location;lat;lon;timestamp;pressure;altitude;pressure_sealevel;temperature;humidity
17521;BME280;8878;-33.370;-70.552;2023-07-22T00:01:42;91966.56;;;15.64;67.80
17521;BME280;8878;-33.370;-70.552;2023-07-22T00:04:12;91959.47;;;15.74;67.53
17521;BME280;8878;-33.370;-70.552;2023-07-22T00:06:43;91979.88;;;15.64;67.73
17521;BME280;8878;-33.370;-70.552;2023-07-22T00:09:14;91973.97;;;15.68;67.74
17521;BME280;8878;-33.370;-70.552;2023-07-22T00:11:52;91974.91;;;15.72;67.50
17521;BME280;8878;-33.370;-70.552;2023-07-22T00:14:27;91968.94;;;15.52;68.10
17521;BME280;8878;-33.370;-70.552;2023-07-22T00:17:01;91968.03;;;15.71;68.12
17521;BME280;8878;-33.370;-70.552;2023-07-22T00:19:34;91976.19;;;15.74;67.52
17521;BME280;8878;-33.370;-70.552;2023-07-22T00:22:04;91965.00;;;15.63;67.72
17521;BME280;8878;-33.370;-70.552;2023-07-22T00:24:34;91968.28;;;15.60;67.99
17521;BME280;8878;-33.370;-70.552;2023-07-22T00:27:05;91962.59;;;15.76;68.08
17521;BME280;8878;-33.370;-70.552;2023-07-22T00:29:35;91972.38;;;15.66;67.52
17521;BME280;8878;-33.370;-70.552;2023-07-22T00:32:08;91975.72;;;15.72;67.83
17521;BME280;8878;-33.370;-70.552;2023-07-22T00:34:37;91974.31;;;15.39;68.17
17521;BME280;8878;-33.370;-70.552;2023-07-22T00:37:07;91967.97;;;15.62;68.17
17521;BME280;8878;-33.370;-70.552;2023-07-22T00:39:37;91964.06;;;15.82;67.49
17521;BME280;8878;-33.370;-70.552;2023-07-22T00:42:08;91962.34;;;15.63;67.37
17521;BME280;8878;-33.370;-70.552;2023-07-22T00:44:37;91963.03;;;15.69;67.73
17521;BME280;8878;-33.370;-70.552;2023-07-22T00:47:07;91964.03;;;15.59;67.40
17521;BME280;8878;-33.370;-70.552;2023-07-22T00:49:37;91961.25;;;15.51;67.98
17521;BME280;8878;-33.370;-70.552;2023-07-22T00:52:06;91962.75;;;15.57;68.17
17521;BME280;8878;-33.370;-70.552;2023-07-22T00:54:36;91972.59;;;15.70;67.43
17521;BME280;8878;-33.370;-70.552;2023-07-22T00:57:09;91952.91;;;15.57;67.57
17521;BME280;8878;-33.370;-70.552;2023-07-22T00:59:39;91951.91;;;15.67;67.49
17521;BME280;8878;-33.370;-70.552;2023-07-22T01:02:09;91952.56;;;15.73;67.28
17521;BME280;8878;-33.370;-70.552;2023-07-22T01:04:38;91957.47;;;15.79;66.79
17521;BME280;8878;-33.370;-70.552;2023-07-22T01:07:09;91956.75;;;15.87;66.48
17521;BME280;8878;-33.370;-70.552;2023-07-22T01:09:39;91963.06;;;15.78;66.14
17521;BME280;8878;-33.370;-70.552;2023-07-22T01:12:11;91950.75;;;15.46;66.58
17521;BME280;8878;-33.370;-70.552;2023-07-22T01:14:42;91950.19;;;15.71;65.63
17521;BME280;8878;-33.370;-70.552;2023-07-22T01:17:14;91961.81;;;15.75;64.81
17521;BME280;8878;-33.370;-70.552;2023-07-22T01:19:44;91959.28;;;15.92;63.17
17521;BME280;8878;-33.370;-70.552;2023-07-22T01:22:13;91957.34;;;16.06;61.98
17521;BME280;8878;-33.370;-70.552;2023-07-22T01:24:47;91957.47;;;15.79;63.10
17521;BME280;8878;-33.370;-70.552;2023-07-22T01:27:16;91972.00;;;15.59;64.44
17521;BME280;8878;-33.370;-70.552;2023-07-22T01:29:46;91959.75;;;15.72;63.76
17521;BME280;8878;-33.370;-70.552;2023-07-22T01:32:19;91972.25;;;15.72;65.07
17521;BME280;8878;-33.370;-70.552;2023-07-22T01:34:48;91969.44;;;15.68;65.13
17521;BME280;8878;-33.370;-70.552;2023-07-22T01:37:19;91961.16;;;15.92;64.71
17521;BME280;8878;-33.370;-70.552;2023-07-22T01:39:50;91965.66;;;16.05;64.25
17521;BME280;8878;-33.370;-70.552;2023-07-22T01:42:19;91979.59;;;16.11;63.73
17521;BME280;8878;-33.370;-70.552;2023-07-22T01:44:50;91960.53;;;15.73;65.15
17521;BME280;8878;-33.370;-70.552;2023-07-22T01:47:19;91973.25;;;15.98;64.68
17521;BME280;8878;-33.370;-70.552;2023-07-22T01:49:49;91968.41;;;15.55;65.32
17521;BME280;8878;-33.370;-70.552;2023-07-22T01:52:18;91965.31;;;15.48;66.50
17521;BME280;8878;-33.370;-70.552;2023-07-22T01:54:50;91954.94;;;15.74;65.86
17521;BME280;8878;-33.370;-70.552;2023-07-22T01:57:20;91951.59;;;15.69;65.30
17521;BME280;8878;-33.370;-70.552;2023-07-22T01:59:49;91952.94;;;15.80;65.20
17521;BME280;8878;-33.370;-70.552;2023-07-22T02:02:19;91942.41;;;15.97;64.21
17521;BME280;8878;-33.370;-70.552;2023-07-22T02:04:49;91946.16;;;15.96;64.37
17521;BME280;8878;-33.370;-70.552;2023-07-22T02:07:19;91942.66;;;15.87;64.63
17521;BME280;8878;-33.370;-70.552;2023-07-22T02:09:52;91945.91;;;15.61;64.66
17521;BME280;8878;-33.370;-70.552;2023-07-22T02:12:22;91934.00;;;15.45;65.45
17521;BME280;8878;-33.370;-70.552;2023-07-22T02:14:51;91931.53;;;15.49;65.63
17521;BME280;8878;-33.370;-70.552;2023-07-22T02:17:21;91931.97;;;15.56;65.96
17521;BME280;8878;-33.370;-70.552;2023-07-22T02:19:50;91934.28;;;15.57;65.26
17521;BME280;8878;-33.370;-70.552;2023-07-22T02:22:20;91940.69;;;15.56;65.62
17521;BME280;8878;-33.370;-70.552;2023-07-22T02:24:51;91936.28;;;15.38;65.97
17521;BME280;8878;-33.370;-70.552;2023-07-22T02:27:21;91936.66;;;15.59;65.93
17521;BME280;8878;-33.370;-70.552;2023-07-22T02:29:51;91940.03;;;15.37;65.88
17521;BME280;8878;-33.370;-70.552;2023-07-22T02:32:21;91938.50;;;15.22;66.33
17521;BME280;8878;-33.370;-70.552;2023-07-22T02:34:50;91939.13;;;15.06;67.01
17521;BME280;8878;-33.370;-70.552;2023-07-22T02:37:20;91935.53;;;15.24;66.54
17521;BME280;8878;-33.370;-70.552;2023-07-22T02:39:51;91938.03;;;15.43;66.45
17521;BME280;8878;-33.370;-70.552;2023-07-22T02:42:21;91934.81;;;15.46;65.63
17521;BME280;8878;-33.370;-70.552;2023-07-22T02:44:50;91925.44;;;15.48;65.53
17521;BME280;8878;-33.370;-70.552;2023-07-22T02:47:20;91931.94;;;15.42;64.92
17521;BME280;8878;-33.370;-70.552;2023-07-22T02:49:51;91920.19;;;15.21;65.37
17521;BME280;8878;-33.370;-70.552;2023-07-22T02:52:23;91915.78;;;15.16;65.49
17521;BME280;8878;-33.370;-70.552;2023-07-22T02:55:10;91913.34;;;15.42;64.85
17521;BME280;8878;-33.370;-70.552;2023-07-22T02:57:42;91918.53;;;15.61;64.88
17521;BME280;8878;-33.370;-70.552;2023-07-22T03:00:12;91922.44;;;15.27;64.98
17521;BME280;8878;-33.370;-70.552;2023-07-22T03:02:47;91940.25;;;15.41;65.00
17521;BME280;8878;-33.370;-70.552;2023-07-22T03:05:17;91953.81;;;15.39;65.46
17521;BME280;8878;-33.370;-70.552;2023-07-22T03:07:47;91947.50;;;15.35;65.13
17521;BME280;8878;-33.370;-70.552;2023-07-22T03:10:19;91956.66;;;15.56;64.85
17521;BME280;8878;-33.370;-70.552;2023-07-22T03:12:49;91953.59;;;15.63;64.65
17521;BME280;8878;-33.370;-70.552;2023-07-22T03:15:22;91956.13;;;15.68;64.29
17521;BME280;8878;-33.370;-70.552;2023-07-22T03:17:53;91945.31;;;15.51;63.86
17521;BME280;8878;-33.370;-70.552;2023-07-22T03:20:25;91947.13;;;15.55;64.15
17521;BME280;8878;-33.370;-70.552;2023-07-22T03:22:56;91944.41;;;15.33;63.94
17521;BME280;8878;-33.370;-70.552;2023-07-22T03:25:28;91948.53;;;15.25;65.06
17521;BME280;8878;-33.370;-70.552;2023-07-22T03:27:57;91964.22;;;15.49;64.82
17521;BME280;8878;-33.370;-70.552;2023-07-22T03:30:28;91966.03;;;15.54;63.94
17521;BME280;8878;-33.370;-70.552;2023-07-22T03:32:58;91961.31;;;15.37;63.66
17521;BME280;8878;-33.370;-70.552;2023-07-22T03:35:28;91967.00;;;15.44;64.53
17521;BME280;8878;-33.370;-70.552;2023-07-22T03:38:00;91963.44;;;15.13;64.72
17521;BME280;8878;-33.370;-70.552;2023-07-22T03:40:33;91961.16;;;15.06;65.12
17521;BME280;8878;-33.370;-70.552;2023-07-22T03:43:04;91959.78;;;15.09;65.38
17521;BME280;8878;-33.370;-70.552;2023-07-22T03:45:34;91959.38;;;15.02;64.78
17521;BME280;8878;-33.370;-70.552;2023-07-22T03:48:05;91954.28;;;14.78;66.00
17521;BME280;8878;-33.370;-70.552;2023-07-22T03:50:37;91963.50;;;15.08;65.53
17521;BME280;8878;-33.370;-70.552;2023-07-22T03:53:07;91967.84;;;15.17;65.23
17521;BME280;8878;-33.370;-70.552;2023-07-22T03:55:39;91952.59;;;14.96;65.35
17521;BME280;8878;-33.370;-70.552;2023-07-22T03:58:08;91960.78;;;15.13;65.54
17521;BME280;8878;-33.370;-70.552;2023-07-22T04:00:39;91958.69;;;15.10;65.27
17521;BME280;8878;-33.370;-70.552;2023-07-22T04:03:08;91958.81;;;14.77;65.92
17521;BME280;8878;-33.370;-70.552;2023-07-22T04:05:38;91957.94;;;14.82;66.29
17521;BME280;8878;-33.370;-70.552;2023-07-22T04:08:08;91959.38;;;15.02;66.04
17521;BME280;8878;-33.370;-70.552;2023-07-22T04:10:39;91954.69;;;14.99;65.63
17521;BME280;8878;-33.370;-70.552;2023-07-22T04:13:08;91949.16;;;14.95;65.94
17521;BME280;8878;-33.370;-70.552;2023-07-22T04:15:39;91951.09;;;15.17;65.77
17521;BME280;8878;-33.370;-70.552;2023-07-22T04:18:08;91952.59;;;15.09;65.20
17521;BME280;8878;-33.370;-70.552;2023-07-22T04:20:38;91953.34;;;15.23;64.69
17521;BME280;8878;-33.370;-70.552;2023-07-22T04:23:08;91944.22;;;15.16;64.25
17521;BME280;8878;-33.370;-70.552;2023-07-22T04:25:42;91938.19;;;15.24;63.70
17521;BME280;8878;-33.370;-70.552;2023-07-22T04:28:12;91944.16;;;15.43;62.97
17521;BME280;8878;-33.370;-70.552;2023-07-22T04:30:41;91950.53;;;15.20;63.16
17521;BME280;8878;-33.370;-70.552;2023-07-22T04:33:11;91941.22;;;15.31;62.70
17521;BME280;8878;-33.370;-70.552;2023-07-22T04:35:42;91961.16;;;15.20;62.35
17521;BME280;8878;-33.370;-70.552;2023-07-22T04:38:12;91960.19;;;14.88;63.13
17521;BME280;8878;-33.370;-70.552;2023-07-22T04:40:45;91965.69;;;15.19;62.20
17521;BME280;8878;-33.370;-70.552;2023-07-22T04:43:15;91952.56;;;15.23;61.79
17521;BME280;8878;-33.370;-70.552;2023-07-22T04:45:45;91955.91;;;15.15;61.42
17521;BME280;8878;-33.370;-70.552;2023-07-22T04:48:16;91953.75;;;15.31;61.32
17521;BME280;8878;-33.370;-70.552;2023-07-22T04:50:46;91951.19;;;15.25;61.18
17521;BME280;8878;-33.370;-70.552;2023-07-22T04:53:17;91960.63;;;15.32;60.73
17521;BME280;8878;-33.370;-70.552;2023-07-22T04:55:49;91969.31;;;15.23;60.71
17521;BME280;8878;-33.370;-70.552;2023-07-22T04:58:19;91967.06;;;15.17;61.30
17521;BME280;8878;-33.370;-70.552;2023-07-22T05:00:49;91965.66;;;15.33;61.31
17521;BME280;8878;-33.370;-70.552;2023-07-22T05:03:19;91961.34;;;15.10;61.51
17521;BME280;8878;-33.370;-70.552;2023-07-22T05:05:52;91969.63;;;15.08;62.23
17521;BME280;8878;-33.370;-70.552;2023-07-22T05:08:21;91966.66;;;15.23;62.12
17521;BME280;8878;-33.370;-70.552;2023-07-22T05:10:53;91963.69;;;15.25;61.69
17521;BME280;8878;-33.370;-70.552;2023-07-22T05:13:23;91980.19;;;15.36;62.27
17521;BME280;8878;-33.370;-70.552;2023-07-22T05:15:52;91956.00;;;15.23;61.58
17521;BME280;8878;-33.370;-70.552;2023-07-22T05:18:22;91965.84;;;15.23;61.94
17521;BME280;8878;-33.370;-70.552;2023-07-22T05:20:51;91945.41;;;15.10;61.69
17521;BME280;8878;-33.370;-70.552;2023-07-22T05:23:21;91921.91;;;15.53;61.38
17521;BME280;8878;-33.370;-70.552;2023-07-22T05:25:55;91923.50;;;15.76;60.48
17521;BME280;8878;-33.370;-70.552;2023-07-22T05:28:25;91933.00;;;15.69;60.56
17521;BME280;8878;-33.370;-70.552;2023-07-22T05:30:56;91938.00;;;15.70;60.29
17521;BME280;8878;-33.370;-70.552;2023-07-22T05:33:26;91939.19;;;15.64;60.57
17521;BME280;8878;-33.370;-70.552;2023-07-22T05:35:56;91905.78;;;15.72;60.12
17521;BME280;8878;-33.370;-70.552;2023-07-22T05:38:25;91918.66;;;15.78;59.61
17521;BME280;8878;-33.370;-70.552;2023-07-22T05:40:57;91929.91;;;15.75;59.72
17521;BME280;8878;-33.370;-70.552;2023-07-22T05:43:26;91906.84;;;15.48;60.12
17521;BME280;8878;-33.370;-70.552;2023-07-22T05:45:56;91893.09;;;15.69;59.59
17521;BME280;8878;-33.370;-70.552;2023-07-22T05:48:25;91910.00;;;15.73;59.54
17521;BME280;8878;-33.370;-70.552;2023-07-22T05:50:55;91906.41;;;15.69;59.13
17521;BME280;8878;-33.370;-70.552;2023-07-22T05:53:26;91900.00;;;15.70;59.21
17521;BME280;8878;-33.370;-70.552;2023-07-22T05:55:57;91896.06;;;15.67;59.30
17521;BME280;8878;-33.370;-70.552;2023-07-22T05:58:27;91886.28;;;15.40;59.57
17521;BME280;8878;-33.370;-70.552;2023-07-22T06:00:57;91888.00;;;15.58;59.50
17521;BME280;8878;-33.370;-70.552;2023-07-22T06:03:26;91891.03;;;15.29;59.75
17521;BME280;8878;-33.370;-70.552;2023-07-22T06:05:57;91884.75;;;15.25;59.75
17521;BME280;8878;-33.370;-70.552;2023-07-22T06:08:27;91880.84;;;15.45;59.54
17521;BME280;8878;-33.370;-70.552;2023-07-22T06:11:00;91875.91;;;15.52;59.36
17521;BME280;8878;-33.370;-70.552;2023-07-22T06:13:29;91861.19;;;15.69;59.16
17521;BME280;8878;-33.370;-70.552;2023-07-22T06:16:00;91875.31;;;15.78;58.37
17521;BME280;8878;-33.370;-70.552;2023-07-22T06:18:29;91875.78;;;15.57;58.43
17521;BME280;8878;-33.370;-70.552;2023-07-22T06:20:59;91873.19;;;15.66;58.46
17521;BME280;8878;-33.370;-70.552;2023-07-22T06:23:29;91871.66;;;15.51;58.43
17521;BME280;8878;-33.370;-70.552;2023-07-22T06:26:01;91875.56;;;15.68;58.45
17521;BME280;8878;-33.370;-70.552;2023-07-22T06:28:31;91882.81;;;15.76;58.04
17521;BME280;8878;-33.370;-70.552;2023-07-22T06:31:02;91876.88;;;15.79;57.28
17521;BME280;8878;-33.370;-70.552;2023-07-22T06:33:32;91880.75;;;15.73;57.52
17521;BME280;8878;-33.370;-70.552;2023-07-22T06:36:01;91889.72;;;15.77;57.61
17521;BME280;8878;-33.370;-70.552;2023-07-22T06:38:31;91893.25;;;15.72;57.44
17521;BME280;8878;-33.370;-70.552;2023-07-22T06:41:03;91895.94;;;15.36;57.67
17521;BME280;8878;-33.370;-70.552;2023-07-22T06:43:32;91904.31;;;14.94;61.27
17521;BME280;8878;-33.370;-70.552;2023-07-22T06:46:02;91907.78;;;14.53;67.43
17521;BME280;8878;-33.370;-70.552;2023-07-22T06:48:31;91918.56;;;14.43;70.81
17521;BME280;8878;-33.370;-70.552;2023-07-22T06:51:01;91921.78;;;14.13;74.70
17521;BME280;8878;-33.370;-70.552;2023-07-22T06:53:31;91914.75;;;13.89;77.04
17521;BME280;8878;-33.370;-70.552;2023-07-22T06:56:02;91905.47;;;13.73;79.03
17521;BME280;8878;-33.370;-70.552;2023-07-22T06:58:33;91938.03;;;13.92;79.66
17521;BME280;8878;-33.370;-70.552;2023-07-22T07:01:02;91918.59;;;13.97;80.14
17521;BME280;8878;-33.370;-70.552;2023-07-22T07:03:32;91909.06;;;13.96;80.70
17521;BME280;8878;-33.370;-70.552;2023-07-22T07:06:03;91906.72;;;13.62;82.86
17521;BME280;8878;-33.370;-70.552;2023-07-22T07:08:32;91925.03;;;13.58;84.82
17521;BME280;8878;-33.370;-70.552;2023-07-22T07:11:04;91927.75;;;13.72;84.39
17521;BME280;8878;-33.370;-70.552;2023-07-22T07:13:33;91939.22;;;13.67;84.10
17521;BME280;8878;-33.370;-70.552;2023-07-22T07:16:20;91942.56;;;13.73;83.93
17521;BME280;8878;-33.370;-70.552;2023-07-22T07:18:50;91948.50;;;14.16;82.89
17521;BME280;8878;-33.370;-70.552;2023-07-22T07:21:20;91945.84;;;14.16;82.83
17521;BME280;8878;-33.370;-70.552;2023-07-22T07:23:51;91942.41;;;14.48;81.63
17521;BME280;8878;-33.370;-70.552;2023-07-22T07:26:23;91938.81;;;13.93;83.61
17521;BME280;8878;-33.370;-70.552;2023-07-22T07:28:53;91943.34;;;13.92;84.18
17521;BME280;8878;-33.370;-70.552;2023-07-22T07:31:23;91940.22;;;14.04;83.93
17521;BME280;8878;-33.370;-70.552;2023-07-22T07:33:53;91953.41;;;14.41;82.60
17521;BME280;8878;-33.370;-70.552;2023-07-22T07:36:23;91960.75;;;14.58;81.91
17521;BME280;8878;-33.370;-70.552;2023-07-22T07:38:53;91969.63;;;14.67;81.57
17521;BME280;8878;-33.370;-70.552;2023-07-22T07:41:24;91960.09;;;14.06;84.42
17521;BME280;8878;-33.370;-70.552;2023-07-22T07:43:53;91960.31;;;14.24;84.32
17521;BME280;8878;-33.370;-70.552;2023-07-22T07:46:24;91963.72;;;13.78;87.64
17521;BME280;8878;-33.370;-70.552;2023-07-22T07:48:55;91963.97;;;13.95;87.52
17521;BME280;8878;-33.370;-70.552;2023-07-22T07:51:26;91975.81;;;13.84;86.71
17521;BME280;8878;-33.370;-70.552;2023-07-22T07:53:57;91980.44;;;14.25;85.41
17521;BME280;8878;-33.370;-70.552;2023-07-22T07:56:30;91972.66;;;14.47;83.94
17521;BME280;8878;-33.370;-70.552;2023-07-22T07:59:02;91971.66;;;14.57;83.61
17521;BME280;8878;-33.370;-70.552;2023-07-22T08:01:32;91976.31;;;14.78;82.84
17521;BME280;8878;-33.370;-70.552;2023-07-22T08:04:02;91983.84;;;14.44;83.82
17521;BME280;8878;-33.370;-70.552;2023-07-22T08:06:32;91984.53;;;14.49;83.66
17521;BME280;8878;-33.370;-70.552;2023-07-22T08:09:02;91993.00;;;14.05;86.36
17521;BME280;8878;-33.370;-70.552;2023-07-22T08:11:34;91983.91;;;14.25;86.09
17521;BME280;8878;-33.370;-70.552;2023-07-22T08:14:03;91980.25;;;14.54;85.71
17521;BME280;8878;-33.370;-70.552;2023-07-22T08:16:35;91989.00;;;14.68;84.63
17521;BME280;8878;-33.370;-70.552;2023-07-22T08:19:05;91989.91;;;14.77;83.92
17521;BME280;8878;-33.370;-70.552;2023-07-22T08:21:35;91999.53;;;14.73;83.44
17521;BME280;8878;-33.370;-70.552;2023-07-22T08:24:05;92012.34;;;14.84;83.58
17521;BME280;8878;-33.370;-70.552;2023-07-22T08:26:37;92012.91;;;15.09;82.55
17521;BME280;8878;-33.370;-70.552;2023-07-22T08:29:07;92002.06;;;14.64;83.31
17521;BME280;8878;-33.370;-70.552;2023-07-22T08:31:38;91996.16;;;14.54;84.94
17521;BME280;8878;-33.370;-70.552;2023-07-22T08:34:10;91985.28;;;14.82;84.15
17521;BME280;8878;-33.370;-70.552;2023-07-22T08:36:40;91974.63;;;14.41;86.08
17521;BME280;8878;-33.370;-70.552;2023-07-22T08:39:12;91981.31;;;14.66;84.75
17521;BME280;8878;-33.370;-70.552;2023-07-22T08:41:47;91976.53;;;14.68;84.62
17521;BME280;8878;-33.370;-70.552;2023-07-22T08:44:19;91976.13;;;14.75;84.69
17521;BME280;8878;-33.370;-70.552;2023-07-22T08:46:50;91971.41;;;15.13;83.98
17521;BME280;8878;-33.370;-70.552;2023-07-22T08:49:27;91983.75;;;15.31;82.41
17521;BME280;8878;-33.370;-70.552;2023-07-22T08:52:00;91984.47;;;15.23;82.24
17521;BME280;8878;-33.370;-70.552;2023-07-22T08:54:41;91984.25;;;15.33;81.83
17521;BME280;8878;-33.370;-70.552;2023-07-22T08:57:15;91983.16;;;15.20;81.82
17521;BME280;8878;-33.370;-70.552;2023-07-22T08:59:46;91981.63;;;14.78;83.56
17521;BME280;8878;-33.370;-70.552;2023-07-22T09:02:16;91974.41;;;14.05;87.35
17521;BME280;8878;-33.370;-70.552;2023-07-22T09:04:48;91987.19;;;14.49;87.31
17521;BME280;8878;-33.370;-70.552;2023-07-22T09:07:18;91986.91;;;14.51;86.44
17521;BME280;8878;-33.370;-70.552;2023-07-22T09:09:49;91997.25;;;14.80;86.24
17521;BME280;8878;-33.370;-70.552;2023-07-22T09:12:21;91989.91;;;14.91;84.99
17521;BME280;8878;-33.370;-70.552;2023-07-22T09:14:51;92003.88;;;15.10;84.02
17521;BME280;8878;-33.370;-70.552;2023-07-22T09:17:23;91999.84;;;14.99;84.03
17521;BME280;8878;-33.370;-70.552;2023-07-22T09:19:53;91987.13;;;14.68;85.37
17521;BME280;8878;-33.370;-70.552;2023-07-22T09:22:26;92010.34;;;14.76;86.05
17521;BME280;8878;-33.370;-70.552;2023-07-22T09:25:13;91983.41;;;14.97;83.42
17521;BME280;8878;-33.370;-70.552;2023-07-22T09:27:44;91982.78;;;14.13;86.91
17521;BME280;8878;-33.370;-70.552;2023-07-22T09:30:25;91988.81;;;14.32;85.67
17521;BME280;8878;-33.370;-70.552;2023-07-22T09:32:57;92001.59;;;13.97;86.67
17521;BME280;8878;-33.370;-70.552;2023-07-22T09:35:28;92017.56;;;14.43;85.07
17521;BME280;8878;-33.370;-70.552;2023-07-22T09:37:59;92010.69;;;14.42;81.88
17521;BME280;8878;-33.370;-70.552;2023-07-22T09:40:29;92016.44;;;14.63;81.49
17521;BME280;8878;-33.370;-70.552;2023-07-22T09:43:02;92034.25;;;14.76;80.59
17521;BME280;8878;-33.370;-70.552;2023-07-22T09:45:32;92033.38;;;15.08;80.38
17521;BME280;8878;-33.370;-70.552;2023-07-22T09:48:02;92020.09;;;15.08;80.75
17521;BME280;8878;-33.370;-70.552;2023-07-22T09:50:33;92022.16;;;15.25;80.38
17521;BME280;8878;-33.370;-70.552;2023-07-22T09:53:06;92037.03;;;15.12;80.51
17521;BME280;8878;-33.370;-70.552;2023-07-22T09:55:35;92047.75;;;15.21;81.09
17521;BME280;8878;-33.370;-70.552;2023-07-22T09:58:07;92009.19;;;14.82;81.58
17521;BME280;8878;-33.370;-70.552;2023-07-22T10:00:38;92013.19;;;15.07;82.39
17521;BME280;8878;-33.370;-70.552;2023-07-22T10:03:10;92016.84;;;15.25;81.28
17521;BME280;8878;-33.370;-70.552;2023-07-22T10:05:42;92022.06;;;15.03;81.91
17521;BME280;8878;-33.370;-70.552;2023-07-22T10:08:15;92027.19;;;15.26;81.03
17521;BME280;8878;-33.370;-70.552;2023-07-22T10:10:48;92027.47;;;15.39;80.31
17521;BME280;8878;-33.370;-70.552;2023-07-22T10:13:22;92021.78;;;14.91;81.15
17521;BME280;8878;-33.370;-70.552;2023-07-22T10:15:53;92023.75;;;14.99;81.37
17521;BME280;8878;-33.370;-70.552;2023-07-22T10:18:24;92023.44;;;14.86;80.87
17521;BME280;8878;-33.370;-70.552;2023-07-22T10:20:54;92023.53;;;14.81;80.79
17521;BME280;8878;-33.370;-70.552;2023-07-22T10:23:26;92031.63;;;14.90;80.10
17521;BME280;8878;-33.370;-70.552;2023-07-22T10:25:57;92038.56;;;14.72;77.61
17521;BME280;8878;-33.370;-70.552;2023-07-22T10:28:29;92040.94;;;14.09;82.10
17521;BME280;8878;-33.370;-70.552;2023-07-22T10:30:59;92051.47;;;13.95;85.15
17521;BME280;8878;-33.370;-70.552;2023-07-22T10:33:29;92057.53;;;14.15;85.78
17521;BME280;8878;-33.370;-70.552;2023-07-22T10:36:06;92062.41;;;14.45;85.43
17521;BME280;8878;-33.370;-70.552;2023-07-22T10:38:36;92076.53;;;14.22;86.46
17521;BME280;8878;-33.370;-70.552;2023-07-22T10:41:12;92056.97;;;14.18;87.36
17521;BME280;8878;-33.370;-70.552;2023-07-22T10:43:55;92052.97;;;14.39;86.77
17521;BME280;8878;-33.370;-70.552;2023-07-22T10:59:33;92098.22;;;14.10;87.04
17521;BME280;8878;-33.370;-70.552;2023-07-22T11:02:08;92107.16;;;14.33;85.61
17521;BME280;8878;-33.370;-70.552;2023-07-22T11:04:51;92095.19;;;13.79;87.52
17521;BME280;8878;-33.370;-70.552;2023-07-22T11:07:31;92098.78;;;13.88;87.11
17521;BME280;8878;-33.370;-70.552;2023-07-22T11:10:16;92101.41;;;13.51;89.32
17521;BME280;8878;-33.370;-70.552;2023-07-22T11:12:46;92109.88;;;13.71;88.97
17521;BME280;8878;-33.370;-70.552;2023-07-22T11:15:19;92125.38;;;13.83;88.11
17521;BME280;8878;-33.370;-70.552;2023-07-22T11:17:49;92137.50;;;14.08;86.92
17521;BME280;8878;-33.370;-70.552;2023-07-22T11:20:22;92131.25;;;14.36;86.16
17521;BME280;8878;-33.370;-70.552;2023-07-22T11:22:52;92115.63;;;14.16;85.97
17521;BME280;8878;-33.370;-70.552;2023-07-22T11:25:21;92109.13;;;14.27;85.48
17521;BME280;8878;-33.370;-70.552;2023-07-22T11:27:51;92109.16;;;14.22;85.06
17521;BME280;8878;-33.370;-70.552;2023-07-22T11:30:24;92131.72;;;14.06;85.69
17521;BME280;8878;-33.370;-70.552;2023-07-22T11:32:54;92142.31;;;14.43;85.14
17521;BME280;8878;-33.370;-70.552;2023-07-22T11:35:28;92142.72;;;14.69;83.72
17521;BME280;8878;-33.370;-70.552;2023-07-22T11:38:01;92134.22;;;14.54;83.07
17521;BME280;8878;-33.370;-70.552;2023-07-22T11:40:34;92136.78;;;14.21;84.60
17521;BME280;8878;-33.370;-70.552;2023-07-22T11:43:05;92147.19;;;14.18;84.91
17521;BME280;8878;-33.370;-70.552;2023-07-22T11:45:38;92149.81;;;14.36;83.95
17521;BME280;8878;-33.370;-70.552;2023-07-22T11:48:10;92148.47;;;14.01;84.57
17521;BME280;8878;-33.370;-70.552;2023-07-22T11:50:41;92138.00;;;14.10;84.88
17521;BME280;8878;-33.370;-70.552;2023-07-22T11:53:11;92147.44;;;14.40;84.78
17521;BME280;8878;-33.370;-70.552;2023-07-22T11:55:40;92165.75;;;14.36;83.16
17521;BME280;8878;-33.370;-70.552;2023-07-22T11:58:10;92164.59;;;14.24;84.20
17521;BME280;8878;-33.370;-70.552;2023-07-22T12:00:43;92154.88;;;14.19;83.86
17521;BME280;8878;-33.370;-70.552;2023-07-22T12:03:15;92153.28;;;13.99;84.17
17521;BME280;8878;-33.370;-70.552;2023-07-22T12:05:44;92144.31;;;14.33;84.16
17521;BME280;8878;-33.370;-70.552;2023-07-22T12:08:15;92128.03;;;14.58;83.31
17521;BME280;8878;-33.370;-70.552;2023-07-22T12:10:56;92127.22;;;14.76;81.92
17521;BME280;8878;-33.370;-70.552;2023-07-22T12:13:26;92127.16;;;14.63;81.48
17521;BME280;8878;-33.370;-70.552;2023-07-22T12:16:04;92142.91;;;14.73;81.43
17521;BME280;8878;-33.370;-70.552;2023-07-22T12:18:43;92138.06;;;14.61;81.25
17521;BME280;8878;-33.370;-70.552;2023-07-22T12:21:14;92134.78;;;14.32;82.07
17521;BME280;8878;-33.370;-70.552;2023-07-22T12:23:45;92139.75;;;14.20;82.09
17521;BME280;8878;-33.370;-70.552;2023-07-22T12:26:14;92147.16;;;13.80;83.26
17521;BME280;8878;-33.370;-70.552;2023-07-22T12:28:43;92133.78;;;13.24;85.40
17521;BME280;8878;-33.370;-70.552;2023-07-22T12:31:15;92146.59;;;13.83;85.16
17521;BME280;8878;-33.370;-70.552;2023-07-22T12:33:44;92166.28;;;14.20;83.75
17521;BME280;8878;-33.370;-70.552;2023-07-22T12:36:13;92172.38;;;14.39;82.19
17521;BME280;8878;-33.370;-70.552;2023-07-22T12:38:43;92179.56;;;14.38;80.57
17521;BME280;8878;-33.370;-70.552;2023-07-22T12:41:12;92189.09;;;14.21;81.29
17521;BME280;8878;-33.370;-70.552;2023-07-22T12:43:42;92183.34;;;13.71;84.17
17521;BME280;8878;-33.370;-70.552;2023-07-22T12:46:13;92186.91;;;14.23;83.86
17521;BME280;8878;-33.370;-70.552;2023-07-22T12:48:43;92178.25;;;14.55;82.21
17521;BME280;8878;-33.370;-70.552;2023-07-22T12:51:12;92197.09;;;14.16;81.98
17521;BME280;8878;-33.370;-70.552;2023-07-22T12:53:42;92211.94;;;13.74;84.53
17521;BME280;8878;-33.370;-70.552;2023-07-22T12:56:11;92202.31;;;13.30;87.43
17521;BME280;8878;-33.370;-70.552;2023-07-22T12:58:40;92191.69;;;13.59;86.37
17521;BME280;8878;-33.370;-70.552;2023-07-22T13:01:10;92205.84;;;13.73;85.91
17521;BME280;8878;-33.370;-70.552;2023-07-22T13:03:42;92201.03;;;13.99;85.59
17521;BME280;8878;-33.370;-70.552;2023-07-22T13:06:11;92199.38;;;13.61;85.92
17521;BME280;8878;-33.370;-70.552;2023-07-22T13:08:41;92212.38;;;13.57;86.96
17521;BME280;8878;-33.370;-70.552;2023-07-22T13:11:11;92219.47;;;13.86;85.74
17521;BME280;8878;-33.370;-70.552;2023-07-22T13:13:41;92234.34;;;13.63;85.50